Time;durP1;ratioP1;P1;durP2;ratioP2;P2;SDS_P1;SDS_P2;PMS_P1;PMS_P2;Temp;Humidity;BMP_temperature;BMP_pressure;BME280_temperature;BME280_humidity;BME280_pressure;Samples;Min_cycle;Max_cycle;Signal;HPM_P1;HPM_P2
2022/07/19 00:02:08;;;;;;;5.13;2.10;;;;;;;18.39;80.09;63904.44;5020711;28;20238;-76
2022/07/19 00:04:36;;;;;;;2.30;2.20;;;;;;;18.37;80.11;63897.19;5022196;28;20217;-77
2022/07/19 00:07:03;;;;;;;3.45;1.90;;;;;;;18.36;80.46;63901.81;5023427;28;20581;-76
2022/07/19 00:09:32;;;;;;;3.15;2.47;;;;;;;18.30;80.66;63890.44;5022206;28;20204;-78
2022/07/19 00:11:59;;;;;;;2.75;2.22;;;;;;;18.37;80.25;63897.19;5019396;28;20245;-76
2022/07/19 00:14:25;;;;;;;2.58;2.38;;;;;;;18.43;80.25;63903.47;5022822;28;20194;-77
2022/07/19 00:16:53;;;;;;;6.38;2.00;;;;;;;18.45;79.96;63905.03;5022510;28;20225;-77
2022/07/19 00:19:20;;;;;;;2.58;2.47;;;;;;;18.50;79.87;63910.75;5019798;28;20213;-76
2022/07/19 00:21:46;;;;;;;2.58;2.38;;;;;;;18.45;80.20;63905.53;5020632;28;20304;-78
2022/07/19 00:24:13;;;;;;;3.03;2.40;;;;;;;18.43;80.17;63903.47;5020403;28;20194;-75
2022/07/19 00:26:42;;;;;;;2.95;2.80;;;;;;;18.39;80.20;63897.22;5025412;28;20222;-76
2022/07/19 00:29:09;;;;;;;2.53;2.03;;;;;;;18.39;79.83;63896.69;5016869;28;20452;-76
2022/07/19 00:31:36;;;;;;;2.85;2.45;;;;;;;18.35;80.41;63895.09;5026605;28;20487;-76
2022/07/19 00:34:03;;;;;;;2.90;2.70;;;;;;;18.30;80.82;63887.84;5017872;28;20202;-75
2022/07/19 00:36:30;;;;;;;3.88;2.75;;;;;;;18.26;81.03;63883.69;5025611;28;20206;-75
2022/07/19 00:38:57;;;;;;;6.18;2.80;;;;;;;18.26;80.60;63881.09;5026088;28;20186;-76
2022/07/19 00:41:24;;;;;;;2.65;2.42;;;;;;;18.24;80.68;63886.75;5025218;28;20226;-76
2022/07/19 00:43:52;;;;;;;2.33;2.13;;;;;;;18.19;80.83;63875.84;5025007;28;20525;-76
2022/07/19 00:46:21;;;;;;;3.05;2.17;;;;;;;18.19;80.44;63875.84;5025831;28;20498;-75
2022/07/19 00:48:49;;;;;;;2.53;2.28;;;;;;;18.23;79.95;63883.13;5026222;28;20240;-76
2022/07/19 00:51:18;;;;;;;3.92;2.50;;;;;;;18.30;79.59;63890.44;5023530;28;20216;-76
2022/07/19 00:53:46;;;;;;;2.72;2.53;;;;;;;18.23;80.02;63883.13;5023270;28;20205;-76
2022/07/19 00:56:14;;;;;;;2.40;2.25;;;;;;;18.24;80.05;63886.22;5017584;28;20268;-76
2022/07/19 00:58:42;;;;;;;2.00;1.92;;;;;;;18.18;80.18;63880.50;5026014;28;20220;-76
2022/07/19 01:01:11;;;;;;;4.18;2.10;;;;;;;18.27;79.62;63886.78;5020587;28;20289;-76
2022/07/19 01:03:39;;;;;;;3.10;2.05;;;;;;;18.18;80.18;63877.41;5020129;28;20217;-75
2022/07/19 01:06:07;;;;;;;2.10;2.00;;;;;;;18.15;80.27;63874.78;5024831;28;20194;-75
2022/07/19 01:08:36;;;;;;;2.70;2.50;;;;;;;18.09;80.34;63868.53;5025636;28;20537;-76
2022/07/19 01:11:04;;;;;;;2.10;2.00;;;;;;;18.12;80.45;63871.66;5022105;28;20198;-76
2022/07/19 01:13:31;;;;;;;2.03;1.92;;;;;;;18.03;81.15;63859.19;5025271;28;20284;-76
2022/07/19 01:15:58;;;;;;;1.98;1.88;;;;;;;17.98;81.99;63854.50;5025304;28;20205;-76
2022/07/19 01:18:27;;;;;;;1.85;1.75;;;;;;;17.96;81.59;63857.06;5023637;28;20226;-76
2022/07/19 01:20:54;;;;;;;2.10;2.00;;;;;;;17.95;82.10;63850.84;5020343;28;20206;-75
2022/07/19 01:23:22;;;;;;;2.63;2.30;;;;;;;18.03;81.86;63862.28;5023594;28;20229;-76
2022/07/19 01:25:49;;;;;;;3.58;2.17;;;;;;;18.05;82.07;63864.38;5024568;28;20210;-77
2022/07/19 01:28:16;;;;;;;4.53;1.90;;;;;;;17.88;82.24;63849.25;5021238;28;20222;-76
2022/07/19 01:30:43;;;;;;;3.97;2.30;;;;;;;17.81;82.33;63844.03;5017450;28;20457;-77
2022/07/19 01:33:10;;;;;;;2.15;2.05;;;;;;;17.90;82.34;63853.91;5023001;28;20221;-76
2022/07/19 01:35:37;;;;;;;2.25;2.05;;;;;;;17.92;81.66;63852.88;5024422;28;20198;-76
2022/07/19 01:38:04;;;;;;;2.28;2.10;;;;;;;17.94;82.36;63849.81;5019210;28;20371;-78
2022/07/19 01:40:33;;;;;;;2.65;2.40;;;;;;;17.95;81.82;63856.00;5024929;28;20190;-77
2022/07/19 01:43:00;;;;;;;2.78;2.15;;;;;;;17.85;81.78;63843.53;5023795;28;20229;-76
2022/07/19 01:45:27;;;;;;;2.25;2.15;;;;;;;17.84;82.17;63845.09;5024566;28;20210;-77
2022/07/19 01:47:54;;;;;;;2.17;2.08;;;;;;;17.79;82.83;63836.78;5015546;28;20234;-76
2022/07/19 01:50:21;;;;;;;4.47;2.10;;;;;;;17.84;82.70;63839.94;5024548;28;20206;-75
2022/07/19 01:52:48;;;;;;;2.10;1.90;;;;;;;17.79;83.33;63839.88;5022763;28;20226;-76
2022/07/19 01:55:14;;;;;;;3.72;2.50;;;;;;;17.77;83.73;63840.38;5022360;28;20205;-75
2022/07/19 01:57:43;;;;;;;2.45;2.30;;;;;;;17.76;83.97;63831.06;5020698;28;20268;-76
2022/07/19 02:00:11;;;;;;;2.83;2.63;;;;;;;17.75;83.92;63830.03;5024199;28;20232;-76
2022/07/19 02:02:38;;;;;;;5.07;2.50;;;;;;;17.73;83.96;63835.66;5024129;28;20225;-76
2022/07/19 02:05:06;;;;;;;2.22;2.03;;;;;;;17.75;84.04;63832.59;5020843;28;20216;-76
2022/07/19 02:07:32;;;;;;;4.55;2.10;;;;;;;17.77;83.70;63837.28;5023777;28;20447;-75
2022/07/19 02:09:59;;;;;;;2.10;2.00;;;;;;;17.80;83.37;63838.34;5023891;28;20194;-75
2022/07/19 02:12:26;;;;;;;4.15;2.33;;;;;;;17.73;83.46;63836.19;5023644;28;20314;-75
2022/07/19 02:14:55;;;;;;;2.15;1.95;;;;;;;17.75;83.70;63840.34;5017275;28;20202;-75
2022/07/19 02:17:21;;;;;;;2.35;2.25;;;;;;;17.71;84.03;63828.97;5024798;28;20285;-76
2022/07/19 02:19:48;;;;;;;2.42;2.22;;;;;;;17.68;84.35;63825.84;5024463;28;20219;-76
2022/07/19 02:22:16;;;;;;;3.65;2.42;;;;;;;17.71;84.15;63828.97;5022151;28;20237;-77
2022/07/19 02:24:43;;;;;;;2.45;1.98;;;;;;;17.66;83.76;63823.75;5022882;28;20216;-76
2022/07/19 02:27:10;;;;;;;2.75;1.73;;;;;;;17.66;83.71;63823.22;5024084;28;20279;-77
2022/07/19 02:29:38;;;;;;;3.38;2.15;;;;;;;17.59;84.76;63816.47;5023935;28;20222;-76
2022/07/19 02:32:07;;;;;;;2.67;2.47;;;;;;;17.39;86.89;63797.69;5020118;28;20222;-76
2022/07/19 02:34:35;;;;;;;2.20;2.10;;;;;;;17.38;87.27;63791.50;5026115;28;20278;-76
2022/07/19 02:37:03;;;;;;;2.92;2.20;;;;;;;17.37;87.17;63793.53;5023647;28;20273;-76
2022/07/19 02:39:30;;;;;;;2.22;2.13;;;;;;;17.20;87.53;63778.41;5023646;28;20194;-76
2022/07/19 02:41:57;;;;;;;2.20;2.10;;;;;;;17.25;88.19;63783.63;5011807;28;20245;-75
2022/07/19 02:44:24;;;;;;;2.20;2.10;;;;;;;17.14;89.14;63767.03;5023482;28;20209;-75
2022/07/19 02:46:52;;;;;;;2.88;2.60;;;;;;;17.00;90.46;63755.03;5023499;28;20413;-76
2022/07/19 02:49:21;;;;;;;3.60;2.83;;;;;;;16.86;91.71;63740.97;5023430;28;20198;-76
2022/07/19 02:51:48;;;;;;;2.25;2.15;;;;;;;16.84;92.20;63741.47;5016572;28;20244;-76
2022/07/19 02:54:15;;;;;;;2.40;2.30;;;;;;;16.84;92.52;63740.94;5023789;28;20237;-76
2022/07/19 02:56:42;;;;;;;4.90;2.38;;;;;;;16.77;93.06;63736.75;5022884;28;20226;-76
2022/07/19 02:59:09;;;;;;;2.83;2.63;;;;;;;16.78;92.89;63735.22;5018972;28;20214;-77
2022/07/19 03:01:36;;;;;;;3.30;3.10;;;;;;;16.70;93.13;63726.91;5019119;28;20202;-76
2022/07/19 03:04:03;;;;;;;3.35;3.15;;;;;;;16.66;93.54;63714.50;5023279;28;20221;-76
2022/07/19 03:06:31;;;;;;;2.47;2.38;;;;;;;16.60;93.50;63713.41;5022240;28;20249;-76
2022/07/19 03:08:58;;;;;;;2.88;2.67;;;;;;;16.72;92.81;63728.47;5013278;28;20241;-76
2022/07/19 03:11:25;;;;;;;3.08;2.83;;;;;;;16.61;93.35;63714.97;5021914;28;20200;-76
2022/07/19 03:13:52;;;;;;;3.10;2.90;;;;;;;16.68;93.18;63727.41;5022686;28;20198;-75
2022/07/19 03:16:19;;;;;;;2.58;2.45;;;;;;;16.75;93.48;63734.69;5018786;28;20222;-77
2022/07/19 03:18:46;;;;;;;3.25;2.95;;;;;;;16.72;93.86;63721.25;5023376;28;20209;-76
2022/07/19 03:21:13;;;;;;;2.50;2.40;;;;;;;16.78;94.09;63735.22;5023490;28;20194;-76
2022/07/19 03:23:41;;;;;;;2.83;2.72;;;;;;;16.77;94.51;63736.25;5023219;28;20522;-77
2022/07/19 03:26:08;;;;;;;3.03;2.83;;;;;;;16.79;94.24;63735.75;5021090;28;20207;-76
2022/07/19 03:28:35;;;;;;;2.80;2.70;;;;;;;16.77;94.20;63736.75;5026045;28;20214;-76
2022/07/19 03:31:02;;;;;;;2.85;2.65;;;;;;;16.84;92.86;63736.31;5023856;28;20201;-75
2022/07/19 03:33:29;;;;;;;5.55;3.78;;;;;;;16.88;92.83;63748.19;5020934;28;20218;-76
2022/07/19 03:35:57;;;;;;;2.72;2.63;;;;;;;16.93;91.53;63747.72;5018297;28;20194;-76
2022/07/19 03:38:24;;;;;;;4.80;2.70;;;;;;;16.98;89.51;63756.03;5023588;28;20473;-76
2022/07/19 03:40:52;;;;;;;2.60;2.50;;;;;;;17.08;88.59;63769.00;5023073;28;20206;-76
2022/07/19 03:43:20;;;;;;;5.43;3.00;;;;;;;17.20;85.43;63776.34;5018508;28;20483;-75
2022/07/19 03:45:47;;;;;;;2.60;2.50;;;;;;;17.37;84.30;63793.00;5021193;28;20194;-75
2022/07/19 03:48:14;;;;;;;2.97;2.80;;;;;;;17.56;82.39;63815.41;5023230;28;20218;-75
2022/07/19 03:50:41;;;;;;;4.15;2.67;;;;;;;17.65;81.20;63822.19;5023698;28;20261;-77
2022/07/19 03:53:08;;;;;;;2.83;2.53;;;;;;;17.77;80.19;63835.22;5018435;28;20228;-75
2022/07/19 03:55:35;;;;;;;2.92;2.65;;;;;;;17.95;78.73;63856.53;5022534;28;20198;-76
2022/07/19 03:58:04;;;;;;;2.55;2.42;;;;;;;18.06;77.65;63867.47;5023371;28;20443;-78
2022/07/19 04:00:32;;;;;;;2.78;2.60;;;;;;;18.13;77.53;63874.75;5024769;28;20205;-76
2022/07/19 04:02:59;;;;;;;2.90;2.63;;;;;;;18.21;77.20;63877.94;5027124;28;20236;-77
2022/07/19 04:05:26;;;;;;;2.60;2.50;;;;;;;18.37;76.65;63899.78;5026338;28;20455;-76
2022/07/19 04:07:52;;;;;;;2.53;2.42;;;;;;;18.56;77.63;63917.00;5027407;28;20221;-76
2022/07/19 04:10:20;;;;;;;4.82;2.60;;;;;;;18.60;78.55;63923.25;5024209;28;20561;-77
2022/07/19 04:12:46;;;;;;;3.03;2.10;;;;;;;18.86;79.15;63950.34;5025852;28;20230;-75
2022/07/19 04:15:15;;;;;;;2.70;2.60;;;;;;;18.96;80.36;63958.19;5025753;28;20277;-76
2022/07/19 04:17:42;;;;;;;2.20;2.08;;;;;;;18.93;81.74;63957.66;5026527;28;20221;-75
2022/07/19 04:20:09;;;;;;;2.92;2.72;;;;;;;18.72;83.73;63936.28;5017404;28;20219;-76
2022/07/19 04:22:36;;;;;;;2.00;1.90;;;;;;;18.80;83.69;63944.59;5022841;28;20268;-76
2022/07/19 04:25:04;;;;;;;3.92;1.83;;;;;;;18.87;83.72;63948.78;5016296;28;20268;-75
2022/07/19 04:27:31;;;;;;;2.25;1.85;;;;;;;18.77;85.09;63938.38;5026289;28;20491;-75
2022/07/19 04:29:58;;;;;;;2.20;1.98;;;;;;;18.86;84.29;63950.34;5023878;28;20206;-78
2022/07/19 04:32:27;;;;;;;3.17;2.20;;;;;;;18.99;84.15;63961.84;5026179;28;20276;-76
2022/07/19 04:34:54;;;;;;;4.03;2.30;;;;;;;19.04;83.37;63964.47;5026281;28;20252;-76
2022/07/19 04:37:21;;;;;;;3.50;2.10;;;;;;;18.97;84.34;63961.81;5027128;28;20518;-75
2022/07/19 04:39:48;;;;;;;2.22;1.88;;;;;;;18.99;85.08;63961.31;5027494;28;20204;-76
2022/07/19 04:42:15;;;;;;;3.20;2.80;;;;;;;18.96;85.85;63961.28;5025341;28;20220;-76
2022/07/19 04:44:42;;;;;;;2.42;2.33;;;;;;;19.06;85.60;63966.56;5026175;28;20429;-77
2022/07/19 04:47:09;;;;;;;4.85;2.40;;;;;;;19.23;84.89;63986.31;5019700;28;20230;-76
2022/07/19 04:49:37;;;;;;;2.20;2.10;;;;;;;19.12;86.68;63975.38;5025883;28;20559;-76
2022/07/19 04:52:05;;;;;;;4.18;2.25;;;;;;;19.19;87.28;63982.69;5025384;28;20268;-76
2022/07/19 04:54:32;;;;;;;2.40;2.20;;;;;;;19.33;87.31;63999.88;5025617;28;20194;-76
2022/07/19 04:56:59;;;;;;;2.63;2.53;;;;;;;19.53;86.89;64023.31;5019748;28;20457;-76
2022/07/19 04:59:26;;;;;;;2.30;2.20;;;;;;;19.60;80.52;64019.25;5025161;28;20194;-78
2022/07/19 05:01:53;;;;;;;1.95;1.85;;;;;;;19.69;77.78;64036.41;5025296;28;20214;-75
2022/07/19 05:04:20;;;;;;;5.55;2.63;;;;;;;19.90;76.75;64055.69;5023837;28;20265;-76
2022/07/19 05:06:51;;;;;;;2.45;2.25;;;;;;;19.93;76.48;64056.75;5025361;28;20248;-75
2022/07/19 05:09:20;;;;;;;5.28;2.83;;;;;;;20.01;76.47;64069.78;5025984;28;20205;-76
2022/07/19 05:11:47;;;;;;;3.17;2.30;;;;;;;20.11;78.76;64078.13;5025777;28;20216;-75
2022/07/19 05:14:14;;;;;;;5.20;2.20;;;;;;;20.10;80.28;64079.16;5016573;28;20420;-75
2022/07/19 05:16:41;;;;;;;5.32;3.47;;;;;;;20.28;78.87;64101.06;5020354;28;20238;-76
2022/07/19 05:19:07;;;;;;;2.40;2.30;;;;;;;20.38;77.01;64105.81;5025128;28;20217;-76
2022/07/19 05:21:34;;;;;;;2.70;2.50;;;;;;;20.43;76.63;64111.03;5025234;28;20225;-77
2022/07/19 05:24:03;;;;;;;5.07;2.50;;;;;;;20.36;75.90;64101.66;5014429;28;20298;-76
2022/07/19 05:26:31;;;;;;;3.20;2.97;;;;;;;20.37;76.23;64107.88;5025117;28;20198;-75
2022/07/19 05:28:58;;;;;;;2.38;2.28;;;;;;;20.27;75.32;64100.03;5024951;28;20206;-76
2022/07/19 05:31:25;;;;;;;2.75;2.55;;;;;;;20.26;76.14;64093.31;5022886;28;20495;-79
2022/07/19 05:33:52;;;;;;;3.90;2.30;;;;;;;20.19;76.64;64089.09;5014993;28;20374;-77
2022/07/19 05:36:19;;;;;;;2.40;2.30;;;;;;;20.35;76.58;64102.69;5024680;28;20502;-77
2022/07/19 05:38:47;;;;;;;3.38;2.72;;;;;;;20.35;77.57;64100.09;5025505;28;20261;-77
2022/07/19 05:41:16;;;;;;;4.90;2.55;;;;;;;20.38;76.56;64108.41;5021209;28;20237;-76
2022/07/19 05:43:43;;;;;;;3.28;2.78;;;;;;;20.47;77.29;64113.13;5020581;28;20232;-77
2022/07/19 05:46:10;;;;;;;2.45;2.00;;;;;;;20.59;76.80;64128.25;5026003;28;20240;-76
2022/07/19 05:48:37;;;;;;;3.58;2.30;;;;;;;20.61;76.86;64129.81;5025436;28;20229;-77
2022/07/19 05:51:04;;;;;;;3.83;2.50;;;;;;;20.53;74.85;64121.47;5023275;28;20197;-76
2022/07/19 05:53:31;;;;;;;3.13;2.22;;;;;;;20.61;75.69;64132.94;5024311;28;20218;-77
2022/07/19 05:55:58;;;;;;;3.85;2.17;;;;;;;20.59;75.16;64127.72;5023735;28;20213;-77
2022/07/19 05:58:27;;;;;;;2.50;2.30;;;;;;;20.35;76.65;64100.09;5024114;28;20229;-75
2022/07/19 06:03:38;;;;;;;2.67;2.55;;;;;;;20.38;76.91;64108.41;5024565;28;20502;-77
2022/07/19 06:06:04;;;;;;;6.88;2.50;;;;;;;20.48;78.38;64121.44;5024541;28;20186;-75
2022/07/19 06:08:31;;;;;;;3.28;2.10;;;;;;;20.65;77.81;64134.00;5024538;28;20365;-77
2022/07/19 06:10:59;;;;;;;3.95;2.15;;;;;;;20.84;77.68;64153.31;5020085;28;20222;-75
2022/07/19 06:13:28;;;;;;;2.60;2.40;;;;;;;21.10;73.95;64180.47;5024307;28;20458;-77
2022/07/19 06:15:55;;;;;;;2.28;2.08;;;;;;;21.30;72.92;64199.28;5025437;28;20475;-76
2022/07/19 06:18:22;;;;;;;2.92;2.67;;;;;;;21.28;74.13;64199.25;5024567;28;20233;-76
2022/07/19 06:20:49;;;;;;;2.72;2.25;;;;;;;21.27;72.47;64203.94;5006806;28;20214;-75
2022/07/19 06:23:16;;;;;;;4.50;2.40;;;;;;;21.25;73.66;64196.13;5026423;28;20236;-76
2022/07/19 06:25:43;;;;;;;2.75;2.50;;;;;;;21.40;72.88;64214.91;5027187;28;20190;-76
2022/07/19 06:28:10;;;;;;;3.55;2.55;;;;;;;21.62;72.09;64239.97;5022462;28;20218;-76
2022/07/19 06:30:38;;;;;;;3.03;2.13;;;;;;;21.64;70.57;64236.88;5023378;28;20190;-76
2022/07/19 06:33:05;;;;;;;2.88;2.35;;;;;;;21.57;69.19;64230.09;5021871;28;20218;-76
2022/07/19 06:35:32;;;;;;;2.90;2.70;;;;;;;21.85;70.08;64261.44;5022493;28;20205;-76
2022/07/19 06:37:59;;;;;;;3.92;2.50;;;;;;;22.01;67.89;64275.56;5019529;28;20221;-75
2022/07/19 06:40:26;;;;;;;3.90;2.60;;;;;;;21.98;66.21;64275.03;5020213;28;20601;-76
2022/07/19 06:42:52;;;;;;;4.25;1.98;;;;;;;21.99;68.21;64273.47;5022705;28;20222;-76
2022/07/19 06:45:19;;;;;;;3.10;2.33;;;;;;;22.12;66.97;64287.06;5023461;28;20269;-76
2022/07/19 06:47:50;;;;;;;4.65;2.15;;;;;;;22.15;66.09;64289.66;5021299;28;20214;-77
2022/07/19 06:50:18;;;;;;;4.13;2.38;;;;;;;22.31;64.10;64309.50;5020294;28;20499;-76
2022/07/19 06:52:45;;;;;;;2.28;2.10;;;;;;;22.52;64.57;64330.94;5020883;28;20446;-76
2022/07/19 06:55:12;;;;;;;4.80;2.25;;;;;;;22.51;63.86;64330.41;5022134;28;20369;-76
2022/07/19 06:57:39;;;;;;;2.38;2.03;;;;;;;22.72;61.74;64349.78;5023094;28;20232;-77
2022/07/19 07:00:09;;;;;;;4.10;2.70;;;;;;;22.87;60.93;64368.06;5021744;28;20198;-76
2022/07/19 07:02:37;;;;;;;2.28;2.00;;;;;;;23.06;59.42;64389.47;5020927;28;20274;-76
2022/07/19 07:05:06;;;;;;;2.50;2.30;;;;;;;23.12;59.59;64391.09;5022079;28;20256;-77
2022/07/19 07:07:33;;;;;;;2.25;2.15;;;;;;;23.14;57.12;64400.47;5022384;28;20588;-77
2022/07/19 07:10:01;;;;;;;2.10;1.95;;;;;;;22.92;57.96;64375.38;5022963;28;20281;-78
2022/07/19 07:12:28;;;;;;;4.20;3.63;;;;;;;23.13;57.96;64394.75;5022210;28;20257;-77
2022/07/19 07:14:55;;;;;;;3.47;2.40;;;;;;;23.30;55.11;64412.00;5022744;28;20198;-74
2022/07/19 07:17:22;;;;;;;2.10;2.00;;;;;;;23.37;50.98;64419.34;5021224;28;20403;-74
2022/07/19 07:19:49;;;;;;;6.07;1.90;;;;;;;23.51;52.93;64431.91;5021886;28;20194;-75
2022/07/19 07:22:17;;;;;;;2.35;2.15;;;;;;;23.68;51.50;64451.78;5023397;28;20422;-74
2022/07/19 07:24:44;;;;;;;2.42;1.90;;;;;;;23.71;47.52;64454.91;5022512;28;20222;-75
2022/07/19 07:27:11;;;;;;;1.88;1.75;;;;;;;23.92;49.31;64474.28;5025414;28;20293;-73
2022/07/19 07:29:38;;;;;;;2.00;1.88;;;;;;;24.05;47.57;64490.00;5015860;28;20198;-74
2022/07/19 07:32:06;;;;;;;2.42;1.92;;;;;;;24.22;43.64;64505.19;5023328;28;20221;-74
2022/07/19 07:34:33;;;;;;;1.95;1.85;;;;;;;24.34;44.31;64520.88;5024739;28;20202;-73
2022/07/19 07:36:59;;;;;;;1.92;1.83;;;;;;;24.41;43.73;64530.28;5016561;28;20293;-73
2022/07/19 07:39:28;;;;;;;1.67;1.67;;;;;;;24.31;44.92;64519.81;5012742;28;20387;-73
2022/07/19 07:41:55;;;;;;;2.47;2.38;;;;;;;24.35;47.53;64524.00;5027187;28;20237;-73
2022/07/19 07:44:22;;;;;;;8.25;2.40;;;;;;;24.52;48.26;64539.72;5026893;28;20321;-74
2022/07/19 07:46:48;;;;;;;5.82;2.25;;;;;;;24.60;47.21;64544.97;5021161;28;20405;-73
2022/07/19 07:49:15;;;;;;;1.50;1.50;;;;;;;24.44;44.78;64531.34;5026359;28;20256;-74
2022/07/19 07:51:42;;;;;;;3.17;2.17;;;;;;;24.14;45.01;64502.53;5007310;28;20257;-73
2022/07/19 07:54:09;;;;;;;2.67;2.05;;;;;;;24.17;46.06;64499.94;5007264;28;20199;-72
2022/07/19 07:56:37;;;;;;;2.28;2.08;;;;;;;24.34;46.94;64522.94;5020275;28;20205;-74
2022/07/19 07:59:04;;;;;;;2.00;1.80;;;;;;;24.39;47.75;64520.38;5026772;28;20407;-73
2022/07/19 08:01:31;;;;;;;2.85;2.67;;;;;;;24.49;46.97;64538.66;5026389;28;20514;-73
2022/07/19 08:03:58;;;;;;;2.03;1.80;;;;;;;24.52;46.08;64539.19;5024349;28;20589;-75
2022/07/19 08:06:25;;;;;;;2.30;2.20;;;;;;;24.74;46.28;64562.78;5024165;28;20262;-74
2022/07/19 08:08:52;;;;;;;2.20;2.10;;;;;;;24.82;45.49;64573.75;5026733;28;20190;-74
2022/07/19 08:11:19;;;;;;;2.05;1.95;;;;;;;24.58;44.91;64543.41;5026036;28;20201;-72
2022/07/19 08:13:47;;;;;;;2.00;2.00;;;;;;;24.05;46.34;64487.38;5018506;28;20207;-74
2022/07/19 08:16:14;;;;;;;2.22;2.03;;;;;;;24.06;48.11;64494.16;5007063;28;20368;-72
2022/07/19 08:18:41;;;;;;;2.25;2.10;;;;;;;24.19;48.26;64505.19;5009008;28;20226;-74
2022/07/19 08:21:08;;;;;;;6.78;2.63;;;;;;;24.31;46.41;64514.59;5007696;28;20210;-73
2022/07/19 08:23:35;;;;;;;5.35;2.30;;;;;;;24.21;46.63;64507.28;5009945;28;20230;-74
2022/07/19 08:26:02;;;;;;;3.90;2.13;;;;;;;24.30;44.75;64519.28;5017267;28;20273;-72
2022/07/19 08:28:29;;;;;;;1.88;1.77;;;;;;;24.33;46.12;64517.22;5013105;28;20226;-72
2022/07/19 08:30:57;;;;;;;2.13;2.03;;;;;;;24.25;46.17;64513.53;5006683;28;20205;-73
2022/07/19 08:33:24;;;;;;;5.20;2.60;;;;;;;24.09;47.02;64494.69;5009268;28;20226;-73
2022/07/19 08:35:51;;;;;;;2.17;2.00;;;;;;;24.26;47.64;64511.97;5006190;28;20199;-73
2022/07/19 08:38:18;;;;;;;2.03;1.92;;;;;;;24.34;47.25;64517.75;5006007;28;20218;-74
2022/07/19 08:40:46;;;;;;;2.55;2.13;;;;;;;24.43;45.39;64525.09;5006146;28;20420;-74
2022/07/19 08:43:14;;;;;;;8.43;2.47;;;;;;;24.51;45.81;64535.53;5005888;28;20226;-73
2022/07/19 08:45:41;;;;;;;2.30;2.20;;;;;;;24.53;45.42;64538.16;5005279;28;20237;-75
2022/07/19 08:48:10;;;;;;;2.45;2.25;;;;;;;24.42;46.06;64529.25;5006119;28;20298;-73
2022/07/19 08:50:40;;;;;;;1.75;1.65;;;;;;;24.49;45.26;64533.97;5016743;28;20194;-73
2022/07/19 08:53:07;;;;;;;2.42;1.92;;;;;;;24.47;43.62;64537.06;5006209;28;20298;-73
2022/07/19 08:55:33;;;;;;;3.85;1.85;;;;;;;24.61;44.61;64546.03;5005648;28;20210;-74
2022/07/19 08:58:01;;;;;;;1.80;1.77;;;;;;;24.76;44.27;64564.88;5007314;28;20219;-75
2022/07/19 09:00:30;;;;;;;1.92;1.83;;;;;;;24.97;44.85;64586.34;5021499;28;20207;-75
2022/07/19 09:02:59;;;;;;;2.30;2.20;;;;;;;25.13;41.46;64602.59;5020775;28;20513;-75
2022/07/19 09:05:28;;;;;;;4.07;2.88;;;;;;;25.27;40.99;64622.44;5014630;28;20257;-73
2022/07/19 09:08:04;;;;;;;1.90;1.80;;;;;;;25.41;41.97;64632.44;5024132;28;20225;-73
2022/07/19 09:10:33;;;;;;;4.22;2.25;;;;;;;25.54;41.42;64648.66;5019037;28;20205;-74
2022/07/19 09:13:02;;;;;;;4.03;2.35;;;;;;;25.49;40.87;64640.31;5005811;28;20273;-73
2022/07/19 09:15:50;;;;;;;2.00;1.90;;;;;;;25.30;39.50;64623.50;5006102;28;20198;-73
2022/07/19 09:18:19;;;;;;;1.77;1.67;;;;;;;25.28;38.69;64616.22;5013779;28;20268;-74
2022/07/19 09:20:49;;;;;;;1.60;1.60;;;;;;;25.31;39.97;64621.97;5017254;28;20432;-74
2022/07/19 09:23:17;;;;;;;2.30;2.10;;;;;;;25.54;40.59;64646.06;5017064;28;20562;-74
2022/07/19 09:25:48;;;;;;;2.95;2.30;;;;;;;25.69;41.25;64663.88;5015197;28;20238;-72
2022/07/19 09:28:16;;;;;;;2.13;1.92;;;;;;;25.80;41.01;64672.81;5020220;28;20225;-73
2022/07/19 09:30:45;;;;;;;1.67;1.67;;;;;;;25.67;39.28;64659.16;5020553;28;20202;-74
2022/07/19 09:33:15;;;;;;;2.40;2.30;;;;;;;25.65;39.09;64657.59;5024101;28;20221;-74
2022/07/19 09:35:44;;;;;;;2.88;2.75;;;;;;;25.71;41.56;64666.50;5015740;28;20230;-73
2022/07/19 09:38:27;;;;;;;5.00;2.00;;;;;;;25.83;38.92;64676.47;5008535;28;20221;-73
2022/07/19 09:40:56;;;;;;;3.50;2.03;;;;;;;25.86;40.86;64682.22;5017706;28;20441;-73
2022/07/19 09:43:25;;;;;;;1.98;1.88;;;;;;;25.84;38.58;64680.13;5018113;28;20218;-73
2022/07/19 09:45:52;;;;;;;5.35;2.25;;;;;;;25.39;40.92;64632.44;5023758;28;20267;-73
2022/07/19 09:48:20;;;;;;;2.10;2.00;;;;;;;25.65;42.77;64654.47;5024461;28;20218;-74
2022/07/19 09:50:48;;;;;;;2.13;2.03;;;;;;;25.90;42.62;64685.88;5021734;28;20237;-76
2022/07/19 09:53:17;;;;;;;3.72;2.40;;;;;;;26.01;40.86;64697.94;5022369;28;20221;-73
2022/07/19 09:55:46;;;;;;;1.98;1.73;;;;;;;26.19;40.95;64708.47;5025044;28;20240;-74
2022/07/19 09:58:14;;;;;;;2.00;1.90;;;;;;;26.38;37.98;64736.22;5023062;28;20214;-73
2022/07/19 10:00:43;;;;;;;1.92;1.83;;;;;;;26.35;39.23;64732.56;5024205;28;20226;-74
2022/07/19 10:03:11;;;;;;;4.38;1.98;;;;;;;26.53;37.51;64751.41;5014930;28;20219;-74
2022/07/19 10:05:38;;;;;;;3.10;2.10;;;;;;;26.73;36.41;64767.19;5022403;28;20230;-73
2022/07/19 10:08:06;;;;;;;1.90;1.80;;;;;;;27.02;38.43;64800.75;5016080;28;20227;-73
2022/07/19 10:10:33;;;;;;;1.85;1.70;;;;;;;27.53;37.20;64858.44;5021306;28;20402;-74
2022/07/19 10:13:07;;;;;;;2.13;2.10;;;;;;;28.04;34.66;64904.16;5007490;28;20249;-76
2022/07/19 10:15:40;;;;;;;1.60;1.60;;;;;;;28.00;34.94;64899.97;5006911;28;20206;-74
2022/07/19 10:18:20;;;;;;;2.20;1.83;;;;;;;28.46;36.02;64950.34;5021419;28;20253;-73
2022/07/19 10:20:48;;;;;;;1.73;1.60;;;;;;;28.53;34.53;64960.34;5021385;28;20262;-73
2022/07/19 10:23:15;;;;;;;1.90;1.80;;;;;;;28.92;34.45;64996.06;5023941;28;20218;-73
2022/07/19 10:25:45;;;;;;;2.20;2.05;;;;;;;29.15;35.12;65023.38;5023723;28;20225;-74
2022/07/19 10:28:31;;;;;;;2.03;1.88;;;;;;;28.72;35.29;64977.66;5021928;28;20276;-73
2022/07/19 10:30:58;;;;;;;2.03;1.92;;;;;;;28.93;35.82;65000.25;5023768;28;20198;-74
2022/07/19 10:33:31;;;;;;;1.52;1.50;;;;;;;29.25;35.38;65030.75;5023884;28;20226;-72
2022/07/19 10:35:58;;;;;;;1.98;1.88;;;;;;;28.72;32.73;64978.19;5022443;28;20258;-74
2022/07/19 10:38:25;;;;;;;3.22;1.92;;;;;;;29.26;34.55;65034.41;5020489;28;20218;-75
2022/07/19 10:40:56;;;;;;;1.85;1.75;;;;;;;29.40;32.34;65046.50;5023399;28;20198;-74
2022/07/19 10:43:24;;;;;;;3.40;1.90;;;;;;;29.56;32.85;65068.03;5023866;28;20257;-73
2022/07/19 10:46:13;;;;;;;2.17;1.98;;;;;;;29.55;31.42;65064.88;5023597;28;20272;-74
2022/07/19 10:48:41;;;;;;;1.88;1.77;;;;;;;28.82;31.06;64988.19;5009396;28;20226;-75
2022/07/19 10:51:13;;;;;;;1.90;1.77;;;;;;;28.07;32.16;64910.47;5011990;28;20221;-73
2022/07/19 10:53:59;;;;;;;6.68;3.45;;;;;;;28.25;32.42;64934.06;5021864;28;20226;-73
2022/07/19 10:56:38;;;;;;;2.13;1.80;;;;;;;28.69;32.58;64977.66;5016554;28;20201;-73
2022/07/19 10:59:08;;;;;;;1.80;1.67;;;;;;;28.39;33.60;64941.44;5020607;28;20194;-73
2022/07/19 11:01:38;;;;;;;2.05;1.45;;;;;;;28.47;32.72;64954.03;5018706;28;20266;-73
2022/07/19 11:04:29;;;;;;;2.00;1.90;;;;;;;28.47;33.06;64954.03;5002361;28;20198;-73
2022/07/19 11:07:19;;;;;;;2.10;2.00;;;;;;;28.77;34.69;64982.94;5008312;28;20573;-73
2022/07/19 11:09:49;;;;;;;1.85;1.77;;;;;;;29.29;33.98;65040.19;5022328;28;20657;-73
2022/07/19 11:12:28;;;;;;;2.15;2.03;;;;;;;29.56;32.65;65065.94;5013696;28;20253;-73
2022/07/19 11:14:56;;;;;;;1.65;1.55;;;;;;;29.91;32.88;65102.22;5023842;28;20197;-74
2022/07/19 11:17:24;;;;;;;2.08;1.98;;;;;;;29.66;32.71;65079.06;5023114;28;20457;-74
2022/07/19 11:20:00;;;;;;;2.05;1.95;;;;;;;30.02;30.45;65114.31;5022798;28;20205;-74
2022/07/19 11:22:27;;;;;;;2.17;2.08;;;;;;;29.83;32.26;65099.59;5022920;28;20221;-73
2022/07/19 11:24:55;;;;;;;5.10;2.28;;;;;;;29.10;32.24;65022.84;5022424;28;20264;-73
2022/07/19 11:27:21;;;;;;;2.20;2.10;;;;;;;29.56;33.17;65063.31;5021515;28;20534;-73
2022/07/19 11:29:55;;;;;;;5.07;2.13;;;;;;;28.74;32.99;64977.69;5021898;28;20216;-72
2022/07/19 11:32:22;;;;;;;2.80;2.50;;;;;;;29.31;33.33;65045.44;5022933;28;20225;-72
2022/07/19 11:34:56;;;;;;;2.55;2.13;;;;;;;29.72;33.83;65082.78;5022824;28;20206;-74
2022/07/19 11:37:28;;;;;;;2.72;2.10;;;;;;;30.09;33.53;65121.66;5020967;28;20213;-74
2022/07/19 11:39:57;;;;;;;2.28;2.08;;;;;;;30.01;32.93;65115.38;5022483;28;20467;-74
2022/07/19 11:42:36;;;;;;;1.90;1.90;;;;;;;29.93;32.93;65107.47;5023109;28;20224;-72